createdAt,value
2023-02-14T00:02:47.061Z,20.00
2023-02-14T00:07:50.175Z,18.67
2023-02-14T00:12:54.721Z,17.77
2023-02-14T00:17:59.777Z,18.33
2023-02-14T00:23:02.989Z,18.63
2023-02-14T00:28:07.821Z,19.40
2023-02-14T00:33:10.918Z,18.83
2023-02-14T00:38:14.024Z,17.87
2023-02-14T00:43:18.535Z,17.73
2023-02-14T00:48:21.673Z,18.77
2023-02-14T00:53:24.838Z,17.67
2023-02-14T00:58:29.363Z,17.73
2023-02-14T01:03:32.834Z,18.33
2023-02-14T01:08:36.120Z,18.00
2023-02-14T01:13:40.731Z,19.47
2023-02-14T01:18:44.647Z,19.97
2023-02-14T01:23:49.004Z,19.87
2023-02-14T01:28:53.569Z,18.90
2023-02-14T01:33:57.098Z,18.03
2023-02-14T01:39:02.380Z,17.20
2023-02-14T01:44:28.866Z,16.13
2023-02-14T01:49:36.108Z,15.57
2023-02-14T01:54:44.948Z,16.43
2023-02-14T01:59:53.653Z,15.70
2023-02-14T02:04:57.685Z,15.40
2023-02-14T02:10:04.072Z,16.03
2023-02-14T02:15:09.573Z,15.63
2023-02-14T02:20:40.983Z,15.47
2023-02-14T02:26:11.586Z,15.03
2023-02-14T02:31:39.089Z,14.97
2023-02-14T02:36:59.106Z,14.27
2023-02-14T02:42:11.786Z,12.80
2023-02-14T02:47:23.129Z,14.03
2023-02-14T02:52:49.972Z,14.77
2023-02-14T02:57:54.922Z,14.03
2023-02-14T03:03:16.547Z,14.23
2023-02-14T03:08:20.990Z,15.03
2023-02-14T03:13:44.453Z,14.77
2023-02-14T03:19:09.441Z,14.30
2023-02-14T03:24:26.334Z,13.97
2023-02-14T03:29:34.042Z,14.60
2023-02-14T03:34:46.456Z,15.47
2023-02-14T03:40:00.308Z,14.40
2023-02-14T03:45:06.249Z,14.47
2023-02-14T03:50:14.890Z,14.63
2023-02-14T03:55:25.675Z,14.27
2023-02-14T04:00:31.470Z,13.70
2023-02-14T04:05:35.004Z,14.97
2023-02-14T04:10:41.962Z,15.20
2023-02-14T04:15:45.125Z,14.33
2023-02-14T04:20:48.280Z,13.43
2023-02-14T04:25:52.811Z,14.27
2023-02-14T04:30:56.047Z,12.93
2023-02-14T04:35:59.186Z,13.97
2023-02-14T04:41:03.759Z,12.70
2023-02-14T04:46:06.901Z,11.67
2023-02-14T04:51:10.094Z,11.60
2023-02-14T04:56:35.640Z,13.40
2023-02-14T05:01:38.830Z,13.00
2023-02-14T05:06:41.926Z,12.67
2023-02-14T05:11:46.364Z,10.87
2023-02-14T05:16:49.617Z,11.30
2023-02-14T05:21:53.118Z,11.57
2023-02-14T05:26:57.582Z,12.03
2023-02-14T05:32:00.736Z,10.70
2023-02-14T05:37:03.990Z,11.37
2023-02-14T05:47:12.945Z,12.83
2023-02-14T05:52:16.221Z,12.90
2023-02-14T05:57:20.752Z,12.43
2023-02-14T06:02:23.839Z,12.73
2023-02-14T06:07:26.967Z,11.93
2023-02-14T06:12:31.456Z,12.03
2023-02-14T06:17:34.603Z,13.10
2023-02-14T06:22:38.277Z,14.63
2023-02-14T06:27:42.987Z,11.77
2023-02-14T06:32:46.379Z,13.27
2023-02-14T06:37:50.950Z,13.97
2023-02-14T06:42:55.467Z,13.87
2023-02-14T06:48:00.110Z,12.83
2023-02-14T06:53:03.590Z,12.63
2023-02-14T06:58:08.114Z,11.87
2023-02-14T07:03:11.613Z,12.87
2023-02-14T07:08:14.840Z,12.53
2023-02-14T07:13:19.387Z,14.13
2023-02-14T07:18:22.524Z,13.23
2023-02-14T07:23:25.603Z,13.73
2023-02-14T07:28:31.395Z,14.17
2023-02-14T07:33:34.587Z,13.73
2023-02-14T07:38:38.003Z,13.10
2023-02-14T07:43:42.755Z,13.23
2023-02-14T07:48:45.954Z,14.40
2023-02-14T07:53:49.362Z,11.40
2023-02-14T07:58:54.002Z,13.07
2023-02-14T08:03:57.120Z,13.43
2023-02-14T08:09:00.232Z,14.17
2023-02-14T08:14:05.591Z,12.30
2023-02-14T08:19:08.720Z,12.33
2023-02-14T08:24:12.023Z,11.67
2023-02-14T08:29:16.937Z,12.10
2023-02-14T08:34:20.199Z,12.23
2023-02-14T08:39:23.458Z,12.10
2023-02-14T08:44:28.229Z,11.57
2023-02-14T08:49:31.339Z,12.20
2023-02-14T08:54:34.613Z,12.60
2023-02-14T08:59:39.120Z,11.67
2023-02-14T09:04:42.224Z,11.30
2023-02-14T09:09:45.349Z,11.30
2023-02-14T09:14:49.886Z,11.57
2023-02-14T09:19:53.067Z,13.77
2023-02-14T09:24:56.165Z,10.40
2023-02-14T09:30:00.836Z,9.57
2023-02-14T09:35:04.109Z,11.23
2023-02-14T09:40:08.393Z,10.93
2023-02-14T09:45:16.049Z,10.37
2023-02-14T09:50:25.311Z,10.37
2023-02-14T09:55:35.425Z,10.83
2023-02-14T10:00:45.487Z,10.87
2023-02-14T10:05:55.966Z,10.27
2023-02-14T10:11:20.495Z,8.83
2023-02-14T10:16:27.479Z,11.17
2023-02-14T10:21:34.707Z,13.20
2023-02-14T10:26:41.315Z,11.27
2023-02-14T10:31:55.803Z,10.73
2023-02-14T10:37:19.956Z,11.40
2023-02-14T10:42:32.938Z,16.93
2023-02-14T10:47:43.659Z,11.33
2023-02-14T10:52:57.331Z,11.53
2023-02-14T10:58:02.737Z,11.23
2023-02-14T11:03:11.016Z,11.47
2023-02-14T11:08:23.215Z,10.03
2023-02-14T11:13:36.109Z,11.10
2023-02-14T11:18:41.642Z,11.47
2023-02-14T11:23:46.129Z,10.93
2023-02-14T11:28:56.795Z,11.10
2023-02-14T11:34:04.808Z,10.67
2023-02-14T11:39:22.638Z,10.10
2023-02-14T11:44:28.416Z,10.27
2023-02-14T11:49:35.309Z,10.20
2023-02-14T11:54:40.382Z,11.10
2023-02-14T11:59:46.448Z,13.73
2023-02-14T12:04:54.202Z,10.93
2023-02-14T12:10:18.740Z,10.77
2023-02-14T12:15:29.149Z,11.23
2023-02-14T12:20:41.967Z,11.47
2023-02-14T12:25:51.103Z,11.13
2023-02-14T12:30:54.700Z,11.73
2023-02-14T12:36:07.981Z,12.03
2023-02-14T12:41:26.194Z,11.80
2023-02-14T12:46:49.360Z,12.83
2023-02-14T12:52:03.317Z,12.47
2023-02-14T12:57:17.148Z,12.63
2023-02-14T13:03:08.598Z,11.97
2023-02-14T13:08:26.312Z,12.30
2023-02-14T13:13:38.657Z,12.23
2023-02-14T13:18:50.942Z,15.30
2023-02-14T13:23:59.200Z,14.23
2023-02-14T13:29:05.546Z,13.80
2023-02-14T13:34:14.853Z,14.97
2023-02-14T13:39:26.085Z,14.40
2023-02-14T13:44:44.434Z,15.67
2023-02-14T13:49:51.480Z,15.47
2023-02-14T13:55:04.492Z,15.17
2023-02-14T14:00:39.118Z,14.40
2023-02-14T14:05:59.263Z,14.40
2023-02-14T14:11:07.001Z,15.23
2023-02-14T14:16:29.726Z,13.90
2023-02-14T14:21:34.814Z,14.37
2023-02-14T14:26:41.974Z,15.37
2023-02-14T14:31:46.685Z,14.23
2023-02-14T14:36:49.940Z,15.10
2023-02-14T14:41:54.483Z,15.63
2023-02-14T14:47:00.483Z,15.23
2023-02-14T14:52:03.694Z,14.40
2023-02-14T14:57:08.323Z,14.60
2023-02-14T15:02:26.362Z,14.63
2023-02-14T15:07:33.659Z,14.47
2023-02-14T15:12:55.776Z,13.00
2023-02-14T15:17:59.036Z,12.00
2023-02-14T15:23:02.978Z,13.43
2023-02-14T15:28:07.511Z,12.47
2023-02-14T15:33:12.703Z,12.57
2023-02-14T15:38:16.632Z,13.30
2023-02-14T15:43:30.811Z,11.87
2023-02-14T15:48:35.164Z,15.47
2023-02-14T15:53:41.938Z,14.63
2023-02-14T15:58:46.983Z,14.03
2023-02-14T16:03:53.480Z,14.67
2023-02-14T16:08:58.045Z,14.90
2023-02-14T16:14:22.253Z,14.07
2023-02-14T16:19:41.494Z,13.93
2023-02-14T16:24:44.597Z,14.10
2023-02-14T16:29:49.197Z,14.43
2023-02-14T16:34:52.521Z,15.80
2023-02-14T16:39:57.700Z,16.53
2023-02-14T16:45:02.390Z,16.43
2023-02-14T16:50:05.754Z,17.27
2023-02-14T16:55:16.727Z,18.30
2023-02-14T17:00:22.683Z,17.70
2023-02-14T17:05:28.147Z,16.23
2023-02-14T17:10:34.674Z,15.67
2023-02-14T17:15:40.266Z,13.93
2023-02-14T17:20:43.730Z,14.77
2023-02-14T17:25:46.817Z,13.73
2023-02-14T17:30:51.347Z,14.60
2023-02-14T17:35:54.475Z,14.60
2023-02-14T17:40:57.630Z,14.17
2023-02-14T17:46:05.492Z,13.60
2023-02-14T17:51:10.609Z,15.27
2023-02-14T17:56:17.957Z,15.73
2023-02-14T18:01:23.848Z,15.53
2023-02-14T18:06:27.080Z,16.40
2023-02-14T18:11:31.060Z,16.43
2023-02-14T18:16:39.332Z,16.60
2023-02-14T18:21:43.357Z,14.77
2023-02-14T18:26:49.594Z,16.93
2023-02-14T18:31:54.148Z,15.93
2023-02-14T18:36:57.279Z,15.73
2023-02-14T18:42:01.154Z,13.60
2023-02-14T18:47:06.872Z,14.50
2023-02-14T18:52:10.430Z,14.70
2023-02-14T18:57:13.729Z,14.30
2023-02-14T19:02:18.406Z,15.17
2023-02-14T19:07:21.527Z,14.00
2023-02-14T19:12:25.130Z,12.60
2023-02-14T19:17:29.644Z,11.93
2023-02-14T19:22:33.036Z,15.67
2023-02-14T19:27:37.026Z,13.60
2023-02-14T19:32:41.487Z,15.03
2023-02-14T19:37:44.603Z,14.83
2023-02-14T19:42:47.822Z,12.33
2023-02-14T19:47:53.098Z,12.37
2023-02-14T19:52:56.254Z,11.43
2023-02-14T19:57:59.370Z,11.00
2023-02-14T20:03:06.138Z,10.53
2023-02-14T20:08:09.266Z,10.93
2023-02-14T20:13:12.466Z,10.60
2023-02-14T20:18:18.001Z,12.53
2023-02-14T20:23:21.309Z,12.50
2023-02-14T20:28:24.581Z,11.67
2023-02-14T20:33:29.220Z,11.43
2023-02-14T20:38:32.495Z,11.63
2023-02-14T20:43:36.180Z,12.23
2023-02-14T20:48:40.879Z,11.63
2023-02-14T20:53:45.184Z,12.10
2023-02-14T20:58:48.540Z,11.63
2023-02-14T21:03:54.507Z,11.03
2023-02-14T21:08:58.625Z,11.03
2023-02-14T21:14:02.810Z,12.87
2023-02-14T21:19:07.281Z,10.93
2023-02-14T21:24:12.068Z,13.30
2023-02-14T21:29:15.357Z,13.67
2023-02-14T21:34:20.496Z,13.50
2023-02-14T21:39:25.760Z,12.27
2023-02-14T21:44:46.083Z,11.27
2023-02-14T21:50:07.872Z,13.63
2023-02-14T21:55:11.097Z,14.20
2023-02-14T22:00:14.747Z,14.13
2023-02-14T22:05:19.421Z,14.33
2023-02-14T22:10:22.589Z,12.63
2023-02-14T22:15:25.808Z,14.17
2023-02-14T22:20:30.524Z,12.67
2023-02-14T22:25:33.659Z,11.57
2023-02-14T22:30:36.819Z,11.90
2023-02-14T22:35:41.353Z,13.33
2023-02-14T22:40:44.465Z,12.27
2023-02-14T22:45:47.575Z,12.70
2023-02-14T22:50:52.044Z,13.33
2023-02-14T22:55:55.138Z,13.23
2023-02-14T23:00:58.351Z,12.90
2023-02-14T23:06:03.193Z,12.97
2023-02-14T23:11:10.885Z,13.27
2023-02-14T23:16:31.362Z,12.70
2023-02-14T23:21:53.066Z,12.07
2023-02-14T23:26:56.714Z,11.90
2023-02-14T23:31:59.948Z,12.40
2023-02-14T23:37:05.370Z,13.10
2023-02-14T23:42:11.593Z,12.87
2023-02-14T23:47:15.975Z,11.90
2023-02-14T23:52:20.453Z,13.30
2023-02-14T23:57:23.644Z,12.40
